Thursday, April 19, 2018, 5:06 PM EDT
Back to Local

KLBE, Latrobe / Westmorland

Location: Latrobe, PA, United States Lat: 40.283
Local Time: 5:06 PM EDT (21:06 GMT) Lon: -79.4
Time Zone: US/Eastern Elev: 1184 ft

Show me the last for .
Show Decoded

2018-04-19 15:50 METAR KLBE 191950Z 30010G20KT 8SM BKN033 03/M02 A3008 =
2018-04-19 14:50 METAR KLBE 191850Z 29010G20KT 8SM BKN026 02/M02 A3006 =
2018-04-19 13:45 METAR KLBE 191745Z 28014KT 10SM BKN025 BKN030 OVC041 02/M02 A3004 =
2018-04-19 12:45 METAR KLBE 191645Z 31007G19KT 10SM FEW014 BKN019 OVC028 01/00 A3001 =
2018-04-19 11:45 METAR KLBE 191545Z 30013G21KT 2SM SCT002 BKN010 OVC020 02/02 A2997 =
2018-04-19 10:50 METAR KLBE 191450Z 33010KT 1/2SM SN 00/00 A2992 =
2018-04-19 10:23 METAR KLBE 191423Z 29007KT 1 1/4SM -SN SCT001 OVC009 00/00 A2990 =
2018-04-19 09:50 METAR KLBE 191350Z 30010G15KT 2SM SN SCT005 OVC010 00/00 A2987 =
2018-04-19 08:50 METAR KLBE 191250Z 32005KT 5SM -RA OVC008 02/02 A2981 =
2018-04-19 07:50 METAR KLBE 191150Z 32015G20KT 3SM -RA BKN006 OVC013 03/03 A2976 =
2018-04-19 06:50 METAR KLBE 191050Z 29008KT 2SM BR OVC006 05/05 A2973 =
2018-04-19 05:55 METAR KLBE 190955Z AUTO 00000KT 10SM BKN006 OVC017 05/05 A2969 RMK AO2 =
2018-04-19 05:15 METAR KLBE 190915Z AUTO 29003KT 7SM OVC006 05/05 A2970 RMK AO2 =
2018-04-19 04:55 METAR KLBE 190855Z AUTO 23004KT 9SM BKN006 OVC014 05/05 A2970 RMK AO2 =
2018-04-19 04:35 METAR KLBE 190835Z AUTO 23004KT 9SM FEW005 OVC012 05/05 A2971 RMK AO2 =
2018-04-19 04:15 METAR KLBE 190815Z AUTO 00000KT 10SM BKN012 BKN049 05/05 A2970 RMK AO2 =
2018-04-19 03:55 METAR KLBE 190755Z AUTO 30003KT 8SM SCT049 SCT100 05/05 A2969 RMK AO2 =
2018-04-19 03:35 METAR KLBE 190735Z AUTO 27003KT 10SM FEW055 BKN100 05/05 A2970 RMK AO2 =
2018-04-19 03:15 METAR KLBE 190715Z AUTO 27004KT 9SM -RA FEW026 FEW040 SCT090 05/05 A2970 RMK AO2
                 =
2018-04-19 02:55 METAR KLBE 190655Z AUTO 00000KT 10SM FEW026 FEW040 BKN075 05/05 A2971 RMK AO2
                 P0004 =
2018-04-19 02:15 METAR KLBE 190615Z AUTO 00000KT 3SM RA FEW001 SCT038 BKN045 06/06 A2972 RMK AO2
                 P0002 =
2018-04-19 01:55 METAR KLBE 190555Z AUTO 00000KT 9SM FEW033 BKN047 OVC070 06/06 A2972 RMK AO2
                 P0015 =
2018-04-19 01:35 METAR KLBE 190535Z AUTO 34004KT 7SM -RA FEW001 SCT015 OVC046 06/06 A2973 RMK AO2
                 P0014 =
2018-04-19 01:15 METAR KLBE 190515Z AUTO 32004KT 2SM +RA BKN001 BKN014 OVC022 06/06 A2973 RMK AO2
                 P0010 =
2018-04-19 00:55 METAR KLBE 190455Z AUTO 32003KT 4SM RA SCT001 BKN036 OVC065 07/06 A2974 RMK AO2
                 P0013 =
2018-04-19 00:35 METAR KLBE 190435Z AUTO 05005KT 5SM -RA SCT001 BKN041 OVC050 07/05 A2969 RMK AO2
                 P0009 =
2018-04-19 00:15 METAR KLBE 190415Z AUTO 00000KT 4SM RA FEW001 BKN041 OVC049 08/04 A2972 RMK AO2
                 P0004 =
2018-04-18 23:55 METAR KLBE 190355Z AUTO 32005KT 10SM -RA BKN042 OVC047 08/03 A2970 RMK AO2 =
2018-04-18 23:35 METAR KLBE 190335Z AUTO 01005KT 10SM BKN047 OVC090 08/03 A2967 RMK AO2 =
2018-04-18 23:15 METAR KLBE 190315Z AUTO 04006KT 10SM FEW047 OVC100 09/02 A2967 RMK AO2 =
2018-04-18 22:55 METAR KLBE 190255Z AUTO 01006KT 10SM OVC100 09/03 A2968 RMK AO2 =
2018-04-18 22:35 METAR KLBE 190235Z AUTO 36005KT 10SM BKN110 09/03 A2969 RMK AO2 =
2018-04-18 22:15 METAR KLBE 190215Z AUTO 35003KT 10SM BKN110 09/03 A2970 RMK AO2 =
2018-04-18 21:45 METAR KLBE 190145Z VRB03KT 10SM FEW050 SCT065 BKN095 09/02 A2972 =
2018-04-18 20:45 METAR KLBE 190045Z VRB04KT 10SM SCT036 OVC060 10/00 A2973 =
2018-04-18 19:45 METAR KLBE 182345Z 00000KT 10SM FEW034 OVC050 11/M01 A2974 =
2018-04-18 18:45 METAR KLBE 182245Z 00000KT 10SM OVC055 11/M01 A2974 =
2018-04-18 17:45 METAR KLBE 182145Z 19004KT 10SM BKN065 BKN075 12/M02 A2976 =

Support USWX by starting your Amazon purchase here.